sensor_id;sensor_type;location;lat;lon;timestamp;P1;durP1;ratioP1;P2;durP2;ratioP2
15383;SDS011;7790;53.022;12.968;2023-06-01T00:00:49;2.10;;;1.57;;
15383;SDS011;7790;53.022;12.968;2023-06-01T00:04:50;4.40;;;1.80;;
15383;SDS011;7790;53.022;12.968;2023-06-01T00:08:52;1.83;;;1.60;;
15383;SDS011;7790;53.022;12.968;2023-06-01T00:12:53;3.17;;;1.50;;
15383;SDS011;7790;53.022;12.968;2023-06-01T00:16:54;2.97;;;1.77;;
15383;SDS011;7790;53.022;12.968;2023-06-01T00:20:56;4.20;;;1.80;;
15383;SDS011;7790;53.022;12.968;2023-06-01T00:24:57;2.17;;;1.57;;
15383;SDS011;7790;53.022;12.968;2023-06-01T00:28:58;2.83;;;1.67;;
15383;SDS011;7790;53.022;12.968;2023-06-01T00:33:00;2.43;;;1.50;;
15383;SDS011;7790;53.022;12.968;2023-06-01T00:37:00;2.70;;;1.70;;
15383;SDS011;7790;53.022;12.968;2023-06-01T00:41:01;3.07;;;1.70;;
15383;SDS011;7790;53.022;12.968;2023-06-01T00:45:02;3.47;;;1.77;;
15383;SDS011;7790;53.022;12.968;2023-06-01T00:49:04;2.27;;;2.00;;
15383;SDS011;7790;53.022;12.968;2023-06-01T00:53:05;4.27;;;2.00;;
15383;SDS011;7790;53.022;12.968;2023-06-01T00:57:09;4.93;;;2.17;;
15383;SDS011;7790;53.022;12.968;2023-06-01T01:01:10;3.17;;;2.10;;
15383;SDS011;7790;53.022;12.968;2023-06-01T01:05:19;2.87;;;2.00;;
15383;SDS011;7790;53.022;12.968;2023-06-01T01:17:50;3.53;;;2.13;;
15383;SDS011;7790;53.022;12.968;2023-06-01T01:22:04;2.63;;;2.03;;
15383;SDS011;7790;53.022;12.968;2023-06-01T01:26:10;3.97;;;2.60;;
15383;SDS011;7790;53.022;12.968;2023-06-01T01:30:29;5.73;;;2.47;;
15383;SDS011;7790;53.022;12.968;2023-06-01T01:34:31;3.30;;;2.10;;
15383;SDS011;7790;53.022;12.968;2023-06-01T01:38:36;2.70;;;2.37;;
15383;SDS011;7790;53.022;12.968;2023-06-01T01:42:37;3.77;;;2.33;;
15383;SDS011;7790;53.022;12.968;2023-06-01T01:46:44;5.40;;;2.40;;
15383;SDS011;7790;53.022;12.968;2023-06-01T01:51:00;3.53;;;2.33;;
15383;SDS011;7790;53.022;12.968;2023-06-01T01:55:05;3.40;;;2.10;;
15383;SDS011;7790;53.022;12.968;2023-06-01T01:59:08;3.13;;;2.00;;
15383;SDS011;7790;53.022;12.968;2023-06-01T02:03:16;3.13;;;2.20;;
15383;SDS011;7790;53.022;12.968;2023-06-01T02:07:17;4.93;;;2.53;;
15383;SDS011;7790;53.022;12.968;2023-06-01T02:11:19;3.97;;;2.47;;
15383;SDS011;7790;53.022;12.968;2023-06-01T02:15:20;6.13;;;2.67;;
15383;SDS011;7790;53.022;12.968;2023-06-01T02:19:21;4.37;;;2.40;;
15383;SDS011;7790;53.022;12.968;2023-06-01T02:23:22;6.67;;;2.53;;
15383;SDS011;7790;53.022;12.968;2023-06-01T02:27:23;4.47;;;2.30;;
15383;SDS011;7790;53.022;12.968;2023-06-01T02:31:24;4.73;;;2.33;;
15383;SDS011;7790;53.022;12.968;2023-06-01T02:35:26;6.33;;;2.80;;
15383;SDS011;7790;53.022;12.968;2023-06-01T02:39:27;4.40;;;2.80;;
15383;SDS011;7790;53.022;12.968;2023-06-01T02:43:28;4.53;;;2.60;;
15383;SDS011;7790;53.022;12.968;2023-06-01T02:47:29;3.97;;;2.50;;
15383;SDS011;7790;53.022;12.968;2023-06-01T02:51:30;5.33;;;2.53;;
15383;SDS011;7790;53.022;12.968;2023-06-01T02:55:42;5.73;;;2.90;;
15383;SDS011;7790;53.022;12.968;2023-06-01T02:59:45;4.33;;;2.40;;
15383;SDS011;7790;53.022;12.968;2023-06-01T03:03:46;3.77;;;2.90;;
15383;SDS011;7790;53.022;12.968;2023-06-01T03:07:47;3.33;;;2.63;;
15383;SDS011;7790;53.022;12.968;2023-06-01T03:11:56;6.30;;;3.00;;
15383;SDS011;7790;53.022;12.968;2023-06-01T03:15:57;5.50;;;2.93;;
15383;SDS011;7790;53.022;12.968;2023-06-01T03:19:58;7.60;;;2.50;;
15383;SDS011;7790;53.022;12.968;2023-06-01T03:24:00;6.73;;;2.70;;
15383;SDS011;7790;53.022;12.968;2023-06-01T03:28:01;5.87;;;2.63;;
15383;SDS011;7790;53.022;12.968;2023-06-01T03:32:02;4.60;;;2.97;;
15383;SDS011;7790;53.022;12.968;2023-06-01T03:36:03;6.37;;;2.90;;
15383;SDS011;7790;53.022;12.968;2023-06-01T03:40:05;6.27;;;2.50;;
15383;SDS011;7790;53.022;12.968;2023-06-01T03:44:11;3.77;;;2.57;;
15383;SDS011;7790;53.022;12.968;2023-06-01T03:48:12;4.93;;;2.87;;
15383;SDS011;7790;53.022;12.968;2023-06-01T03:52:13;4.77;;;2.90;;
15383;SDS011;7790;53.022;12.968;2023-06-01T03:56:17;4.70;;;2.70;;
15383;SDS011;7790;53.022;12.968;2023-06-01T04:00:19;4.23;;;2.50;;
15383;SDS011;7790;53.022;12.968;2023-06-01T04:04:27;3.47;;;2.47;;
15383;SDS011;7790;53.022;12.968;2023-06-01T04:08:29;5.40;;;3.03;;
15383;SDS011;7790;53.022;12.968;2023-06-01T04:12:30;4.87;;;2.80;;
15383;SDS011;7790;53.022;12.968;2023-06-01T04:16:31;4.93;;;3.07;;
15383;SDS011;7790;53.022;12.968;2023-06-01T04:20:32;4.93;;;2.77;;
15383;SDS011;7790;53.022;12.968;2023-06-01T04:24:35;4.93;;;2.80;;
15383;SDS011;7790;53.022;12.968;2023-06-01T04:28:36;4.83;;;3.07;;
15383;SDS011;7790;53.022;12.968;2023-06-01T04:32:44;4.37;;;2.83;;
15383;SDS011;7790;53.022;12.968;2023-06-01T04:36:48;5.60;;;2.80;;
15383;SDS011;7790;53.022;12.968;2023-06-01T04:40:51;4.67;;;3.00;;
15383;SDS011;7790;53.022;12.968;2023-06-01T04:44:59;4.50;;;2.90;;
15383;SDS011;7790;53.022;12.968;2023-06-01T04:49:05;3.73;;;2.80;;
15383;SDS011;7790;53.022;12.968;2023-06-01T04:53:06;4.60;;;3.10;;
15383;SDS011;7790;53.022;12.968;2023-06-01T04:57:07;4.97;;;2.93;;
15383;SDS011;7790;53.022;12.968;2023-06-01T05:01:07;5.40;;;3.13;;
15383;SDS011;7790;53.022;12.968;2023-06-01T05:05:09;5.37;;;3.17;;
15383;SDS011;7790;53.022;12.968;2023-06-01T05:09:11;3.67;;;2.77;;
15383;SDS011;7790;53.022;12.968;2023-06-01T05:13:13;6.17;;;3.27;;
15383;SDS011;7790;53.022;12.968;2023-06-01T05:17:15;5.27;;;2.67;;
15383;SDS011;7790;53.022;12.968;2023-06-01T05:21:15;5.23;;;2.73;;
15383;SDS011;7790;53.022;12.968;2023-06-01T05:25:16;4.83;;;2.83;;
15383;SDS011;7790;53.022;12.968;2023-06-01T05:29:18;5.27;;;3.33;;
15383;SDS011;7790;53.022;12.968;2023-06-01T05:33:19;5.23;;;2.80;;
15383;SDS011;7790;53.022;12.968;2023-06-01T05:37:20;7.60;;;3.23;;
15383;SDS011;7790;53.022;12.968;2023-06-01T05:41:21;5.70;;;2.70;;
15383;SDS011;7790;53.022;12.968;2023-06-01T05:45:22;4.17;;;2.90;;
15383;SDS011;7790;53.022;12.968;2023-06-01T05:49:23;14.87;;;4.27;;
15383;SDS011;7790;53.022;12.968;2023-06-01T05:53:24;11.90;;;4.30;;
15383;SDS011;7790;53.022;12.968;2023-06-01T05:57:26;13.87;;;3.70;;
15383;SDS011;7790;53.022;12.968;2023-06-01T06:01:27;7.20;;;3.43;;
15383;SDS011;7790;53.022;12.968;2023-06-01T06:05:27;10.30;;;3.50;;
15383;SDS011;7790;53.022;12.968;2023-06-01T06:09:28;7.33;;;3.30;;
15383;SDS011;7790;53.022;12.968;2023-06-01T06:13:29;7.67;;;3.90;;
15383;SDS011;7790;53.022;12.968;2023-06-01T06:17:30;9.00;;;3.80;;
15383;SDS011;7790;53.022;12.968;2023-06-01T06:21:31;7.47;;;3.30;;
15383;SDS011;7790;53.022;12.968;2023-06-01T06:25:32;5.00;;;3.00;;
15383;SDS011;7790;53.022;12.968;2023-06-01T06:29:33;5.93;;;3.23;;
15383;SDS011;7790;53.022;12.968;2023-06-01T06:33:34;6.10;;;3.03;;
15383;SDS011;7790;53.022;12.968;2023-06-01T06:37:35;7.63;;;2.80;;
15383;SDS011;7790;53.022;12.968;2023-06-01T06:41:36;4.93;;;2.80;;
15383;SDS011;7790;53.022;12.968;2023-06-01T06:45:37;5.83;;;3.00;;
15383;SDS011;7790;53.022;12.968;2023-06-01T06:49:38;6.23;;;3.00;;
15383;SDS011;7790;53.022;12.968;2023-06-01T06:53:39;6.63;;;3.10;;
15383;SDS011;7790;53.022;12.968;2023-06-01T06:57:40;5.20;;;2.93;;
15383;SDS011;7790;53.022;12.968;2023-06-01T07:01:41;5.23;;;2.70;;
15383;SDS011;7790;53.022;12.968;2023-06-01T07:05:42;6.13;;;2.90;;
15383;SDS011;7790;53.022;12.968;2023-06-01T07:09:45;5.90;;;2.80;;
15383;SDS011;7790;53.022;12.968;2023-06-01T07:13:46;5.67;;;2.87;;
15383;SDS011;7790;53.022;12.968;2023-06-01T07:17:47;5.33;;;2.90;;
15383;SDS011;7790;53.022;12.968;2023-06-01T07:21:48;4.90;;;3.13;;
15383;SDS011;7790;53.022;12.968;2023-06-01T07:25:48;6.27;;;2.47;;
15383;SDS011;7790;53.022;12.968;2023-06-01T07:29:49;4.33;;;2.60;;
15383;SDS011;7790;53.022;12.968;2023-06-01T07:33:56;4.13;;;2.87;;
15383;SDS011;7790;53.022;12.968;2023-06-01T07:37:57;4.43;;;2.80;;
15383;SDS011;7790;53.022;12.968;2023-06-01T07:41:58;4.13;;;2.90;;
15383;SDS011;7790;53.022;12.968;2023-06-01T07:45:59;3.93;;;2.50;;
15383;SDS011;7790;53.022;12.968;2023-06-01T07:49:59;5.63;;;3.07;;
15383;SDS011;7790;53.022;12.968;2023-06-01T07:54:00;4.77;;;3.03;;
15383;SDS011;7790;53.022;12.968;2023-06-01T07:58:01;4.20;;;2.73;;
15383;SDS011;7790;53.022;12.968;2023-06-01T08:02:02;6.90;;;2.90;;
15383;SDS011;7790;53.022;12.968;2023-06-01T08:06:03;3.97;;;3.00;;
15383;SDS011;7790;53.022;12.968;2023-06-01T08:10:05;5.60;;;3.70;;
15383;SDS011;7790;53.022;12.968;2023-06-01T08:14:07;4.77;;;3.40;;
15383;SDS011;7790;53.022;12.968;2023-06-01T08:18:09;5.00;;;3.17;;
15383;SDS011;7790;53.022;12.968;2023-06-01T08:22:10;6.57;;;2.97;;
15383;SDS011;7790;53.022;12.968;2023-06-01T08:26:12;8.30;;;4.57;;
15383;SDS011;7790;53.022;12.968;2023-06-01T08:30:12;7.83;;;4.37;;
15383;SDS011;7790;53.022;12.968;2023-06-01T08:34:13;6.63;;;4.30;;
15383;SDS011;7790;53.022;12.968;2023-06-01T08:38:14;6.63;;;4.60;;
15383;SDS011;7790;53.022;12.968;2023-06-01T08:42:20;8.90;;;4.63;;
15383;SDS011;7790;53.022;12.968;2023-06-01T08:46:27;7.27;;;4.63;;
15383;SDS011;7790;53.022;12.968;2023-06-01T08:50:30;14.70;;;4.67;;
15383;SDS011;7790;53.022;12.968;2023-06-01T08:54:31;6.23;;;4.40;;
15383;SDS011;7790;53.022;12.968;2023-06-01T08:58:32;6.90;;;4.37;;
15383;SDS011;7790;53.022;12.968;2023-06-01T09:02:35;6.47;;;4.33;;
15383;SDS011;7790;53.022;12.968;2023-06-01T09:06:36;7.17;;;3.80;;
15383;SDS011;7790;53.022;12.968;2023-06-01T09:10:37;5.03;;;3.40;;
15383;SDS011;7790;53.022;12.968;2023-06-01T09:14:38;6.87;;;3.40;;
15383;SDS011;7790;53.022;12.968;2023-06-01T09:19:00;4.50;;;3.57;;
15383;SDS011;7790;53.022;12.968;2023-06-01T09:23:00;6.57;;;3.23;;
15383;SDS011;7790;53.022;12.968;2023-06-01T09:27:01;5.70;;;3.57;;
15383;SDS011;7790;53.022;12.968;2023-06-01T09:31:02;6.53;;;3.50;;
15383;SDS011;7790;53.022;12.968;2023-06-01T09:35:03;10.77;;;4.00;;
15383;SDS011;7790;53.022;12.968;2023-06-01T09:39:08;4.67;;;3.60;;
15383;SDS011;7790;53.022;12.968;2023-06-01T09:43:20;6.37;;;3.53;;
15383;SDS011;7790;53.022;12.968;2023-06-01T09:47:22;6.30;;;3.70;;
15383;SDS011;7790;53.022;12.968;2023-06-01T09:51:29;3.87;;;3.33;;
15383;SDS011;7790;53.022;12.968;2023-06-01T09:55:31;5.90;;;3.90;;
15383;SDS011;7790;53.022;12.968;2023-06-01T09:59:42;4.90;;;3.70;;
15383;SDS011;7790;53.022;12.968;2023-06-01T10:03:44;8.40;;;3.63;;
15383;SDS011;7790;53.022;12.968;2023-06-01T10:07:48;6.70;;;3.80;;
15383;SDS011;7790;53.022;12.968;2023-06-01T10:11:49;8.83;;;3.90;;
15383;SDS011;7790;53.022;12.968;2023-06-01T10:15:54;5.17;;;3.30;;
15383;SDS011;7790;53.022;12.968;2023-06-01T10:19:55;6.53;;;3.90;;
15383;SDS011;7790;53.022;12.968;2023-06-01T10:23:57;7.50;;;3.60;;
15383;SDS011;7790;53.022;12.968;2023-06-01T10:27:59;5.73;;;4.10;;
15383;SDS011;7790;53.022;12.968;2023-06-01T10:32:03;7.40;;;3.87;;
15383;SDS011;7790;53.022;12.968;2023-06-01T10:36:05;9.73;;;3.83;;
15383;SDS011;7790;53.022;12.968;2023-06-01T10:40:24;4.97;;;3.60;;
15383;SDS011;7790;53.022;12.968;2023-06-01T10:48:53;4.80;;;3.50;;
15383;SDS011;7790;53.022;12.968;2023-06-01T10:52:56;4.43;;;3.03;;
15383;SDS011;7790;53.022;12.968;2023-06-01T10:57:17;3.97;;;2.90;;
15383;SDS011;7790;53.022;12.968;2023-06-01T11:01:27;5.43;;;3.40;;
15383;SDS011;7790;53.022;12.968;2023-06-01T11:09:48;6.73;;;3.23;;
15383;SDS011;7790;53.022;12.968;2023-06-01T11:14:08;6.97;;;3.47;;
15383;SDS011;7790;53.022;12.968;2023-06-01T11:22:42;4.83;;;3.10;;
15383;SDS011;7790;53.022;12.968;2023-06-01T11:26:44;4.53;;;2.90;;
15383;SDS011;7790;53.022;12.968;2023-06-01T11:30:47;4.23;;;3.00;;
15383;SDS011;7790;53.022;12.968;2023-06-01T11:34:48;4.67;;;2.97;;
15383;SDS011;7790;53.022;12.968;2023-06-01T11:38:48;11.10;;;3.33;;
15383;SDS011;7790;53.022;12.968;2023-06-01T11:42:49;5.17;;;3.47;;
15383;SDS011;7790;53.022;12.968;2023-06-01T11:46:51;3.97;;;3.30;;
15383;SDS011;7790;53.022;12.968;2023-06-01T11:50:54;7.20;;;3.67;;
15383;SDS011;7790;53.022;12.968;2023-06-01T11:55:01;5.00;;;3.40;;
15383;SDS011;7790;53.022;12.968;2023-06-01T11:59:03;6.37;;;3.20;;
15383;SDS011;7790;53.022;12.968;2023-06-01T12:03:08;6.37;;;3.47;;
15383;SDS011;7790;53.022;12.968;2023-06-01T12:07:09;6.17;;;3.33;;
15383;SDS011;7790;53.022;12.968;2023-06-01T12:11:10;5.90;;;3.40;;
15383;SDS011;7790;53.022;12.968;2023-06-01T12:15:16;7.27;;;3.53;;
15383;SDS011;7790;53.022;12.968;2023-06-01T12:19:18;5.77;;;3.50;;
15383;SDS011;7790;53.022;12.968;2023-06-01T12:23:19;7.40;;;3.53;;
15383;SDS011;7790;53.022;12.968;2023-06-01T12:27:20;6.43;;;3.67;;
15383;SDS011;7790;53.022;12.968;2023-06-01T12:31:21;6.50;;;3.70;;
15383;SDS011;7790;53.022;12.968;2023-06-01T12:35:22;6.77;;;3.53;;
15383;SDS011;7790;53.022;12.968;2023-06-01T12:39:32;6.63;;;3.70;;
15383;SDS011;7790;53.022;12.968;2023-06-01T12:43:37;4.50;;;3.00;;
15383;SDS011;7790;53.022;12.968;2023-06-01T12:47:39;9.33;;;3.47;;
15383;SDS011;7790;53.022;12.968;2023-06-01T12:51:42;6.20;;;3.20;;
15383;SDS011;7790;53.022;12.968;2023-06-01T12:55:43;7.47;;;3.70;;
15383;SDS011;7790;53.022;12.968;2023-06-01T12:59:44;5.70;;;3.23;;
15383;SDS011;7790;53.022;12.968;2023-06-01T13:03:45;6.97;;;3.47;;
15383;SDS011;7790;53.022;12.968;2023-06-01T13:07:46;8.93;;;3.40;;
15383;SDS011;7790;53.022;12.968;2023-06-01T13:11:46;4.30;;;2.80;;
15383;SDS011;7790;53.022;12.968;2023-06-01T13:15:47;8.07;;;3.50;;
15383;SDS011;7790;53.022;12.968;2023-06-01T13:19:48;7.60;;;3.30;;
15383;SDS011;7790;53.022;12.968;2023-06-01T13:23:49;5.77;;;3.30;;
15383;SDS011;7790;53.022;12.968;2023-06-01T13:27:50;6.50;;;3.73;;
15383;SDS011;7790;53.022;12.968;2023-06-01T13:31:51;7.70;;;3.33;;
15383;SDS011;7790;53.022;12.968;2023-06-01T13:35:52;5.00;;;3.30;;
15383;SDS011;7790;53.022;12.968;2023-06-01T13:39:53;6.03;;;3.57;;
15383;SDS011;7790;53.022;12.968;2023-06-01T13:43:54;4.70;;;3.33;;
15383;SDS011;7790;53.022;12.968;2023-06-01T13:47:55;8.00;;;3.70;;
15383;SDS011;7790;53.022;12.968;2023-06-01T13:51:56;4.30;;;3.20;;
15383;SDS011;7790;53.022;12.968;2023-06-01T13:55:56;7.30;;;3.37;;
15383;SDS011;7790;53.022;12.968;2023-06-01T13:59:59;5.10;;;3.03;;
15383;SDS011;7790;53.022;12.968;2023-06-01T14:04:00;6.30;;;3.70;;
15383;SDS011;7790;53.022;12.968;2023-06-01T14:08:01;6.73;;;3.40;;
15383;SDS011;7790;53.022;12.968;2023-06-01T14:12:04;8.43;;;3.73;;
15383;SDS011;7790;53.022;12.968;2023-06-01T14:16:06;4.07;;;3.23;;
15383;SDS011;7790;53.022;12.968;2023-06-01T14:20:07;6.20;;;3.63;;
15383;SDS011;7790;53.022;12.968;2023-06-01T14:24:09;6.40;;;3.77;;
15383;SDS011;7790;53.022;12.968;2023-06-01T14:28:10;8.33;;;3.77;;
15383;SDS011;7790;53.022;12.968;2023-06-01T14:32:11;8.83;;;3.77;;
15383;SDS011;7790;53.022;12.968;2023-06-01T14:36:11;5.90;;;3.30;;
15383;SDS011;7790;53.022;12.968;2023-06-01T14:40:13;6.10;;;3.63;;
15383;SDS011;7790;53.022;12.968;2023-06-01T14:44:13;8.47;;;3.20;;
15383;SDS011;7790;53.022;12.968;2023-06-01T14:48:14;6.73;;;3.13;;
15383;SDS011;7790;53.022;12.968;2023-06-01T14:52:15;7.33;;;3.40;;
15383;SDS011;7790;53.022;12.968;2023-06-01T14:56:16;4.03;;;3.10;;
15383;SDS011;7790;53.022;12.968;2023-06-01T15:00:17;5.93;;;3.00;;
15383;SDS011;7790;53.022;12.968;2023-06-01T15:04:18;6.10;;;2.90;;
15383;SDS011;7790;53.022;12.968;2023-06-01T15:08:19;9.97;;;3.13;;
15383;SDS011;7790;53.022;12.968;2023-06-01T15:12:21;13.37;;;3.10;;
15383;SDS011;7790;53.022;12.968;2023-06-01T15:16:21;5.97;;;2.90;;
15383;SDS011;7790;53.022;12.968;2023-06-01T15:20:22;9.10;;;2.80;;
15383;SDS011;7790;53.022;12.968;2023-06-01T15:24:23;4.23;;;2.77;;
15383;SDS011;7790;53.022;12.968;2023-06-01T15:28:24;8.30;;;3.07;;
15383;SDS011;7790;53.022;12.968;2023-06-01T15:32:25;6.63;;;2.83;;
15383;SDS011;7790;53.022;12.968;2023-06-01T15:36:26;5.47;;;2.60;;
15383;SDS011;7790;53.022;12.968;2023-06-01T15:40:27;8.83;;;2.63;;
15383;SDS011;7790;53.022;12.968;2023-06-01T15:44:28;5.20;;;2.73;;
15383;SDS011;7790;53.022;12.968;2023-06-01T15:48:29;3.97;;;2.57;;
15383;SDS011;7790;53.022;12.968;2023-06-01T15:52:30;7.37;;;2.70;;
15383;SDS011;7790;53.022;12.968;2023-06-01T15:56:31;5.00;;;2.67;;
15383;SDS011;7790;53.022;12.968;2023-06-01T16:00:32;5.73;;;2.70;;
15383;SDS011;7790;53.022;12.968;2023-06-01T16:04:33;6.10;;;2.97;;
15383;SDS011;7790;53.022;12.968;2023-06-01T16:08:34;4.73;;;2.50;;
15383;SDS011;7790;53.022;12.968;2023-06-01T16:12:36;4.87;;;2.60;;
15383;SDS011;7790;53.022;12.968;2023-06-01T16:16:36;4.80;;;2.07;;
15383;SDS011;7790;53.022;12.968;2023-06-01T16:20:37;5.53;;;2.17;;
15383;SDS011;7790;53.022;12.968;2023-06-01T16:24:38;5.43;;;2.20;;
15383;SDS011;7790;53.022;12.968;2023-06-01T16:28:39;5.27;;;2.30;;
15383;SDS011;7790;53.022;12.968;2023-06-01T16:32:40;6.63;;;2.93;;
15383;SDS011;7790;53.022;12.968;2023-06-01T16:36:40;5.70;;;2.20;;
15383;SDS011;7790;53.022;12.968;2023-06-01T16:40:41;5.30;;;2.30;;
15383;SDS011;7790;53.022;12.968;2023-06-01T16:44:42;7.97;;;2.57;;
15383;SDS011;7790;53.022;12.968;2023-06-01T16:48:43;5.60;;;2.43;;
15383;SDS011;7790;53.022;12.968;2023-06-01T16:52:44;4.47;;;2.30;;
15383;SDS011;7790;53.022;12.968;2023-06-01T16:56:45;5.70;;;2.53;;
15383;SDS011;7790;53.022;12.968;2023-06-01T17:00:45;5.73;;;2.50;;
15383;SDS011;7790;53.022;12.968;2023-06-01T17:04:46;4.33;;;2.00;;
15383;SDS011;7790;53.022;12.968;2023-06-01T17:08:47;7.13;;;2.50;;
15383;SDS011;7790;53.022;12.968;2023-06-01T17:12:48;13.43;;;2.73;;
15383;SDS011;7790;53.022;12.968;2023-06-01T17:16:50;9.80;;;2.70;;
15383;SDS011;7790;53.022;12.968;2023-06-01T17:20:50;4.27;;;2.17;;
15383;SDS011;7790;53.022;12.968;2023-06-01T17:24:52;6.20;;;2.20;;
15383;SDS011;7790;53.022;12.968;2023-06-01T17:28:52;6.87;;;2.40;;
15383;SDS011;7790;53.022;12.968;2023-06-01T17:32:53;6.07;;;2.30;;
15383;SDS011;7790;53.022;12.968;2023-06-01T17:36:55;6.17;;;2.63;;
15383;SDS011;7790;53.022;12.968;2023-06-01T17:40:56;9.87;;;2.63;;
15383;SDS011;7790;53.022;12.968;2023-06-01T17:44:56;5.33;;;2.40;;
15383;SDS011;7790;53.022;12.968;2023-06-01T17:48:57;5.93;;;2.47;;
15383;SDS011;7790;53.022;12.968;2023-06-01T17:52:58;6.87;;;2.33;;
15383;SDS011;7790;53.022;12.968;2023-06-01T17:56:59;6.47;;;2.40;;
15383;SDS011;7790;53.022;12.968;2023-06-01T18:01:00;4.87;;;1.90;;
15383;SDS011;7790;53.022;12.968;2023-06-01T18:05:01;5.20;;;2.13;;
15383;SDS011;7790;53.022;12.968;2023-06-01T18:09:02;4.50;;;2.57;;
15383;SDS011;7790;53.022;12.968;2023-06-01T18:13:03;6.67;;;2.40;;
15383;SDS011;7790;53.022;12.968;2023-06-01T18:17:04;4.83;;;2.37;;
15383;SDS011;7790;53.022;12.968;2023-06-01T18:21:05;8.70;;;2.63;;
15383;SDS011;7790;53.022;12.968;2023-06-01T18:25:06;8.00;;;2.63;;
15383;SDS011;7790;53.022;12.968;2023-06-01T18:29:07;6.67;;;2.50;;
15383;SDS011;7790;53.022;12.968;2023-06-01T18:33:08;8.13;;;2.47;;
15383;SDS011;7790;53.022;12.968;2023-06-01T18:37:09;7.10;;;2.30;;
15383;SDS011;7790;53.022;12.968;2023-06-01T18:41:10;5.50;;;2.37;;
15383;SDS011;7790;53.022;12.968;2023-06-01T18:45:11;3.70;;;1.80;;
15383;SDS011;7790;53.022;12.968;2023-06-01T18:49:12;5.27;;;2.33;;
15383;SDS011;7790;53.022;12.968;2023-06-01T18:53:13;6.33;;;2.33;;
15383;SDS011;7790;53.022;12.968;2023-06-01T18:57:14;3.67;;;1.90;;
15383;SDS011;7790;53.022;12.968;2023-06-01T19:01:15;4.77;;;2.30;;
15383;SDS011;7790;53.022;12.968;2023-06-01T19:05:19;4.00;;;1.97;;
15383;SDS011;7790;53.022;12.968;2023-06-01T19:09:21;4.43;;;2.10;;
15383;SDS011;7790;53.022;12.968;2023-06-01T19:13:23;3.60;;;2.03;;
15383;SDS011;7790;53.022;12.968;2023-06-01T19:17:40;4.53;;;2.27;;
15383;SDS011;7790;53.022;12.968;2023-06-01T19:21:41;4.10;;;1.97;;
15383;SDS011;7790;53.022;12.968;2023-06-01T19:25:42;4.10;;;2.43;;
15383;SDS011;7790;53.022;12.968;2023-06-01T19:29:43;3.10;;;1.80;;
15383;SDS011;7790;53.022;12.968;2023-06-01T19:33:44;3.87;;;1.90;;
15383;SDS011;7790;53.022;12.968;2023-06-01T19:37:46;2.80;;;2.10;;
15383;SDS011;7790;53.022;12.968;2023-06-01T19:41:47;3.33;;;2.03;;
15383;SDS011;7790;53.022;12.968;2023-06-01T19:45:48;4.63;;;1.97;;
15383;SDS011;7790;53.022;12.968;2023-06-01T19:49:49;3.93;;;1.80;;
15383;SDS011;7790;53.022;12.968;2023-06-01T19:53:50;3.20;;;1.70;;
15383;SDS011;7790;53.022;12.968;2023-06-01T19:57:51;2.37;;;1.60;;
15383;SDS011;7790;53.022;12.968;2023-06-01T20:01:52;3.90;;;2.07;;
15383;SDS011;7790;53.022;12.968;2023-06-01T20:05:54;3.43;;;1.80;;
15383;SDS011;7790;53.022;12.968;2023-06-01T20:09:55;2.77;;;1.83;;
15383;SDS011;7790;53.022;12.968;2023-06-01T20:13:56;3.87;;;1.80;;
15383;SDS011;7790;53.022;12.968;2023-06-01T20:18:05;2.23;;;1.60;;
15383;SDS011;7790;53.022;12.968;2023-06-01T20:22:07;2.53;;;1.60;;
15383;SDS011;7790;53.022;12.968;2023-06-01T20:26:08;5.80;;;2.10;;
15383;SDS011;7790;53.022;12.968;2023-06-01T20:34:31;2.83;;;1.70;;
15383;SDS011;7790;53.022;12.968;2023-06-01T20:38:33;5.80;;;2.07;;
15383;SDS011;7790;53.022;12.968;2023-06-01T20:42:42;3.43;;;1.80;;
15383;SDS011;7790;53.022;12.968;2023-06-01T20:46:43;2.73;;;1.77;;
15383;SDS011;7790;53.022;12.968;2023-06-01T20:50:45;3.27;;;1.77;;
15383;SDS011;7790;53.022;12.968;2023-06-01T20:54:45;3.67;;;1.80;;
15383;SDS011;7790;53.022;12.968;2023-06-01T20:58:46;3.43;;;1.80;;
15383;SDS011;7790;53.022;12.968;2023-06-01T21:02:47;4.70;;;1.87;;
15383;SDS011;7790;53.022;12.968;2023-06-01T21:06:48;3.10;;;1.53;;
15383;SDS011;7790;53.022;12.968;2023-06-01T21:10:49;4.67;;;1.70;;
15383;SDS011;7790;53.022;12.968;2023-06-01T21:14:50;2.97;;;1.60;;
15383;SDS011;7790;53.022;12.968;2023-06-01T21:18:51;2.73;;;1.60;;
15383;SDS011;7790;53.022;12.968;2023-06-01T21:22:52;3.50;;;1.97;;
15383;SDS011;7790;53.022;12.968;2023-06-01T21:26:53;3.17;;;1.50;;
15383;SDS011;7790;53.022;12.968;2023-06-01T21:30:55;3.40;;;1.50;;
15383;SDS011;7790;53.022;12.968;2023-06-01T21:34:56;1.93;;;1.40;;
15383;SDS011;7790;53.022;12.968;2023-06-01T21:38:57;2.63;;;1.43;;
15383;SDS011;7790;53.022;12.968;2023-06-01T21:42:58;4.67;;;1.93;;
15383;SDS011;7790;53.022;12.968;2023-06-01T21:46:59;3.10;;;1.73;;
15383;SDS011;7790;53.022;12.968;2023-06-01T21:51:00;4.37;;;1.87;;
15383;SDS011;7790;53.022;12.968;2023-06-01T21:55:01;3.70;;;1.53;;
15383;SDS011;7790;53.022;12.968;2023-06-01T21:59:02;2.50;;;1.47;;
15383;SDS011;7790;53.022;12.968;2023-06-01T22:03:04;2.60;;;1.27;;
15383;SDS011;7790;53.022;12.968;2023-06-01T22:07:05;4.10;;;1.83;;
15383;SDS011;7790;53.022;12.968;2023-06-01T22:11:05;3.43;;;1.67;;
15383;SDS011;7790;53.022;12.968;2023-06-01T22:15:07;5.57;;;1.80;;
15383;SDS011;7790;53.022;12.968;2023-06-01T22:19:08;3.03;;;1.67;;
15383;SDS011;7790;53.022;12.968;2023-06-01T22:23:09;2.97;;;1.60;;
15383;SDS011;7790;53.022;12.968;2023-06-01T22:27:10;4.03;;;1.90;;
15383;SDS011;7790;53.022;12.968;2023-06-01T22:31:11;3.80;;;1.60;;
15383;SDS011;7790;53.022;12.968;2023-06-01T22:35:12;3.17;;;1.33;;
15383;SDS011;7790;53.022;12.968;2023-06-01T22:39:13;4.37;;;1.73;;
15383;SDS011;7790;53.022;12.968;2023-06-01T22:43:14;2.87;;;1.33;;
15383;SDS011;7790;53.022;12.968;2023-06-01T22:47:15;2.70;;;1.53;;
15383;SDS011;7790;53.022;12.968;2023-06-01T22:51:16;3.80;;;1.60;;
15383;SDS011;7790;53.022;12.968;2023-06-01T22:55:17;3.50;;;1.60;;
15383;SDS011;7790;53.022;12.968;2023-06-01T22:59:18;3.23;;;1.70;;
15383;SDS011;7790;53.022;12.968;2023-06-01T23:03:19;3.43;;;1.60;;
15383;SDS011;7790;53.022;12.968;2023-06-01T23:07:20;4.73;;;1.77;;
15383;SDS011;7790;53.022;12.968;2023-06-01T23:11:21;3.90;;;1.80;;
15383;SDS011;7790;53.022;12.968;2023-06-01T23:15:27;3.03;;;1.63;;
15383;SDS011;7790;53.022;12.968;2023-06-01T23:19:30;2.97;;;1.63;;
15383;SDS011;7790;53.022;12.968;2023-06-01T23:23:33;2.67;;;1.67;;
15383;SDS011;7790;53.022;12.968;2023-06-01T23:27:34;3.87;;;1.57;;
15383;SDS011;7790;53.022;12.968;2023-06-01T23:31:35;3.47;;;1.60;;
15383;SDS011;7790;53.022;12.968;2023-06-01T23:35:36;3.17;;;1.80;;
15383;SDS011;7790;53.022;12.968;2023-06-01T23:39:37;3.47;;;1.67;;
15383;SDS011;7790;53.022;12.968;2023-06-01T23:43:38;2.77;;;1.20;;
15383;SDS011;7790;53.022;12.968;2023-06-01T23:47:39;3.63;;;1.70;;
15383;SDS011;7790;53.022;12.968;2023-06-01T23:51:40;3.13;;;1.40;;
15383;SDS011;7790;53.022;12.968;2023-06-01T23:55:41;5.03;;;1.63;;
15383;SDS011;7790;53.022;12.968;2023-06-01T23:59:42;2.97;;;1.73;;
